Terminal Aerodrome Forecast
Issued by NWS

Home | Current Version | Previous Version | Text Only | Print | Product List | Glossary On
Versions: 1 2 3 4 5 6 7 8 9 10 11 12 13 14
000
FTUS45 KVEF 022022 AAA
TAFEED
TAF AMD
KEED 022022Z 0220/0318 03006KT P6SM FEW100
      TEMPO 0222/0301 -SHRA SCT060 BKN100
     FM030200 35006KT P6SM SKC
     FM031500 03010KT P6SM SKC=

USA.gov is the U.S. government's official web portal to all federal, state and local government web resources and services.